Time;durP1;ratioP1;P1;durP2;ratioP2;P2;SDS_P1;SDS_P2;PMS_P1;PMS_P2;Temp;Humidity;BMP_temperature;BMP_pressure;BME280_temperature;BME280_humidity;BME280_pressure;Samples;Min_cycle;Max_cycle;Signal;HPM_P1;HPM_P2
2021/05/09 00:00:23;;;;;;;24.73;12.53;;;5.40;99.90;;;;;;4401959;32;20183;-75
2021/05/09 00:02:49;;;;;;;27.13;13.13;;;5.40;99.90;;;;;;4410484;32;20193;-75
2021/05/09 00:05:18;;;;;;;21.77;12.87;;;5.40;99.90;;;;;;4397041;32;20212;-75
2021/05/09 00:07:44;;;;;;;24.80;13.10;;;5.40;99.90;;;;;;4410266;32;20209;-74
2021/05/09 00:10:13;;;;;;;26.10;13.53;;;5.30;99.90;;;;;;4410343;32;20172;-75
2021/05/09 00:12:40;;;;;;;27.00;13.33;;;5.30;99.90;;;;;;4409946;32;20192;-75
2021/05/09 00:15:12;;;;;;;27.07;13.23;;;5.30;99.90;;;;;;4410770;32;20194;-75
2021/05/09 00:17:46;;;;;;;30.00;13.30;;;5.30;99.90;;;;;;4411297;32;20484;-75
2021/05/09 00:20:16;;;;;;;25.67;13.40;;;5.30;99.90;;;;;;4410888;32;20181;-74
2021/05/09 00:22:48;;;;;;;26.77;13.20;;;5.30;99.90;;;;;;4410220;32;20150;-74
2021/05/09 00:25:27;;;;;;;26.60;13.70;;;5.30;99.90;;;;;;4405085;32;20202;-75
2021/05/09 00:27:55;;;;;;;26.07;13.37;;;5.20;99.90;;;;;;4382003;32;20317;-75
2021/05/09 00:30:32;;;;;;;26.83;13.23;;;5.20;99.90;;;;;;4402559;32;20190;-74
2021/05/09 00:33:06;;;;;;;26.57;13.43;;;5.20;99.90;;;;;;4395365;32;20184;-74
2021/05/09 00:35:42;;;;;;;28.37;14.23;;;5.20;99.90;;;;;;4395434;32;20156;-75
2021/05/09 00:38:20;;;;;;;25.63;13.50;;;5.20;99.90;;;;;;4401601;32;20162;-75
2021/05/09 00:41:02;;;;;;;26.73;13.20;;;5.30;99.90;;;;;;4386910;32;20427;-74
2021/05/09 00:43:41;;;;;;;23.33;13.10;;;5.20;99.90;;;;;;4395286;32;20182;-74
2021/05/09 00:46:18;;;;;;;26.63;13.20;;;5.20;99.90;;;;;;4395190;32;20450;-74
2021/05/09 00:49:05;;;;;;;28.47;13.33;;;5.20;99.90;;;;;;4394051;32;20158;-74
2021/05/09 00:51:31;;;;;;;27.30;13.87;;;5.20;99.90;;;;;;4399216;32;20192;-75
2021/05/09 00:53:59;;;;;;;28.07;14.20;;;5.20;99.90;;;;;;4406451;32;20165;-74
2021/05/09 00:56:36;;;;;;;26.80;13.60;;;5.10;99.90;;;;;;4409724;32;20164;-75
2021/05/09 00:59:12;;;;;;;31.30;13.93;;;5.10;99.90;;;;;;4410064;32;20213;-75
2021/05/09 01:01:41;;;;;;;24.37;13.87;;;5.00;99.90;;;;;;4409411;32;20185;-75
2021/05/09 01:04:19;;;;;;;28.10;13.83;;;5.00;99.90;;;;;;4409629;32;20162;-75
2021/05/09 01:06:50;;;;;;;24.93;14.17;;;4.90;99.90;;;;;;4409912;32;20158;-75
2021/05/09 01:09:19;;;;;;;27.03;14.37;;;4.90;99.90;;;;;;4409774;32;20150;-75
2021/05/09 01:11:54;;;;;;;27.80;14.47;;;4.90;99.90;;;;;;4409404;32;20185;-74
2021/05/09 01:14:20;;;;;;;30.63;14.63;;;4.80;99.90;;;;;;4408934;32;20203;-75
2021/05/09 01:16:47;;;;;;;27.20;13.80;;;4.70;99.90;;;;;;4409460;32;20177;-75
2021/05/09 01:19:13;;;;;;;28.27;14.60;;;4.70;99.90;;;;;;4408955;32;20379;-74
2021/05/09 01:21:40;;;;;;;30.23;15.40;;;4.60;99.90;;;;;;4409483;32;20228;-74
2021/05/09 01:24:07;;;;;;;28.57;14.97;;;4.60;99.90;;;;;;4409440;32;20443;-74
2021/05/09 01:26:50;;;;;;;28.77;14.57;;;4.50;99.90;;;;;;4409047;32;20263;-74
2021/05/09 01:29:29;;;;;;;29.07;14.20;;;4.50;99.90;;;;;;4409375;32;20160;-74
2021/05/09 01:31:55;;;;;;;27.93;14.43;;;4.40;99.90;;;;;;4409915;32;20581;-75
2021/05/09 01:34:22;;;;;;;26.30;13.73;;;4.30;99.90;;;;;;4408688;32;20416;-75
2021/05/09 01:36:48;;;;;;;28.17;15.10;;;4.30;99.90;;;;;;4410725;32;20465;-75
2021/05/09 01:39:15;;;;;;;28.87;14.37;;;4.30;99.90;;;;;;4409352;32;20460;-75
2021/05/09 01:41:41;;;;;;;30.60;15.33;;;4.20;99.90;;;;;;4408971;32;20289;-75
2021/05/09 01:44:08;;;;;;;28.37;15.70;;;4.20;99.90;;;;;;4409072;32;20194;-75
2021/05/09 01:46:34;;;;;;;26.57;15.27;;;4.10;99.90;;;;;;4409127;32;20151;-74
2021/05/09 01:49:01;;;;;;;31.50;15.73;;;4.10;99.90;;;;;;4409075;32;20458;-74
2021/05/09 01:51:30;;;;;;;29.40;14.87;;;4.00;99.90;;;;;;4409178;32;20189;-74
2021/05/09 01:53:59;;;;;;;27.20;14.90;;;4.00;99.90;;;;;;4411017;32;20186;-74
2021/05/09 01:56:26;;;;;;;29.80;15.30;;;3.90;99.90;;;;;;4410901;32;20219;-75
2021/05/09 01:58:54;;;;;;;28.40;15.60;;;3.90;99.90;;;;;;4399997;32;20201;-75
2021/05/09 02:01:20;;;;;;;26.63;14.97;;;3.90;99.90;;;;;;4403218;32;20445;-74
2021/05/09 02:03:46;;;;;;;33.37;15.97;;;3.80;99.90;;;;;;4395723;32;20482;-75
2021/05/09 02:06:13;;;;;;;29.97;15.63;;;3.80;99.90;;;;;;4401983;32;20163;-75
2021/05/09 02:08:39;;;;;;;31.43;16.53;;;3.80;99.90;;;;;;4408809;32;20197;-75
2021/05/09 02:11:06;;;;;;;30.97;16.17;;;3.70;99.90;;;;;;4408797;32;20186;-75
2021/05/09 02:13:32;;;;;;;31.20;16.67;;;3.70;99.90;;;;;;4408649;32;20144;-75
2021/05/09 02:15:58;;;;;;;30.07;16.57;;;3.60;99.90;;;;;;4409596;32;20155;-75
2021/05/09 02:18:25;;;;;;;31.30;16.43;;;3.60;99.90;;;;;;4408799;32;20187;-75
2021/05/09 02:20:51;;;;;;;32.03;16.73;;;3.60;99.90;;;;;;4408522;32;20215;-75
2021/05/09 02:23:17;;;;;;;29.10;17.03;;;3.50;99.90;;;;;;4408967;32;20148;-74
2021/05/09 02:25:44;;;;;;;28.73;15.83;;;3.50;99.90;;;;;;4408709;32;20346;-74
2021/05/09 02:28:10;;;;;;;34.13;17.03;;;3.50;99.90;;;;;;4410106;32;20198;-74
2021/05/09 02:30:36;;;;;;;32.73;16.97;;;3.40;99.90;;;;;;4408563;32;20144;-74
2021/05/09 02:33:03;;;;;;;31.97;16.70;;;3.40;99.90;;;;;;4408458;32;20219;-74
2021/05/09 02:35:29;;;;;;;30.97;17.43;;;3.40;99.90;;;;;;4409048;32;20380;-73
2021/05/09 02:37:55;;;;;;;29.87;16.67;;;3.40;99.90;;;;;;4408276;32;20215;-73
2021/05/09 02:40:22;;;;;;;35.40;18.10;;;3.40;99.90;;;;;;4407935;32;20186;-73
2021/05/09 02:42:50;;;;;;;32.27;17.40;;;3.30;99.90;;;;;;4403082;32;20167;-74
2021/05/09 02:45:17;;;;;;;30.97;16.47;;;3.30;99.90;;;;;;4397770;32;20159;-74
2021/05/09 02:47:43;;;;;;;32.43;16.67;;;3.30;99.90;;;;;;4393162;32;20581;-74
2021/05/09 02:50:10;;;;;;;33.57;18.13;;;3.30;99.90;;;;;;4393306;32;20191;-74
2021/05/09 02:52:37;;;;;;;32.87;16.83;;;3.30;99.90;;;;;;4393503;32;20143;-74
2021/05/09 02:55:04;;;;;;;31.67;17.57;;;3.20;99.90;;;;;;4396274;32;20186;-74
2021/05/09 02:57:30;;;;;;;29.80;17.70;;;3.30;99.90;;;;;;4395879;32;20183;-74
2021/05/09 02:59:57;;;;;;;32.93;16.90;;;3.30;99.90;;;;;;4396438;32;20199;-75
2021/05/09 03:02:23;;;;;;;28.83;16.60;;;3.30;99.90;;;;;;4396904;32;20172;-74
2021/05/09 03:04:51;;;;;;;27.47;16.03;;;3.30;99.90;;;;;;4396388;32;20170;-74
2021/05/09 03:07:17;;;;;;;29.60;16.60;;;3.40;99.90;;;;;;4396592;32;20377;-74
2021/05/09 03:09:44;;;;;;;30.77;16.43;;;3.40;99.90;;;;;;4395966;32;20148;-73
2021/05/09 03:12:10;;;;;;;31.53;17.33;;;3.50;99.90;;;;;;4395994;32;20166;-74
2021/05/09 03:14:36;;;;;;;30.67;16.53;;;3.50;99.90;;;;;;4397419;32;20143;-74
2021/05/09 03:17:03;;;;;;;28.93;16.00;;;3.60;99.90;;;;;;4396525;32;20206;-74
2021/05/09 03:19:29;;;;;;;27.27;15.50;;;3.60;99.90;;;;;;4399541;32;20152;-74
2021/05/09 03:21:56;;;;;;;27.93;15.83;;;3.70;99.90;;;;;;4411344;32;20195;-74
2021/05/09 03:24:22;;;;;;;28.47;15.87;;;3.80;99.90;;;;;;4411514;32;20361;-74
2021/05/09 03:26:49;;;;;;;28.30;15.93;;;3.80;99.90;;;;;;4409448;32;20159;-75
2021/05/09 03:29:15;;;;;;;29.53;16.27;;;3.90;99.90;;;;;;4409359;32;20493;-75
2021/05/09 03:31:41;;;;;;;27.97;16.43;;;3.90;99.90;;;;;;4402215;32;20178;-75
2021/05/09 03:34:08;;;;;;;27.43;16.27;;;3.90;99.90;;;;;;4397058;32;20154;-75
2021/05/09 03:36:35;;;;;;;30.53;16.83;;;4.00;99.90;;;;;;4395891;32;20217;-75
2021/05/09 03:39:01;;;;;;;32.37;17.43;;;4.10;99.90;;;;;;4395836;32;20165;-73
2021/05/09 03:41:28;;;;;;;31.70;16.33;;;4.10;99.90;;;;;;4407484;32;20165;-73
2021/05/09 03:43:54;;;;;;;27.93;16.13;;;4.10;99.90;;;;;;4410957;32;20200;-73
2021/05/09 03:46:21;;;;;;;30.40;16.67;;;4.10;99.90;;;;;;4410958;32;20152;-72
2021/05/09 03:48:47;;;;;;;31.07;15.70;;;4.10;99.90;;;;;;4411565;32;20169;-71
2021/05/09 03:51:13;;;;;;;30.87;16.00;;;4.00;99.90;;;;;;4410843;32;20200;-72
2021/05/09 03:53:40;;;;;;;29.07;16.27;;;4.00;99.90;;;;;;4410885;32;20146;-72
2021/05/09 03:56:06;;;;;;;25.50;14.70;;;4.10;99.90;;;;;;4410792;32;20411;-71
2021/05/09 03:58:33;;;;;;;31.07;16.33;;;4.20;99.90;;;;;;4405937;32;20166;-71
2021/05/09 04:00:59;;;;;;;27.53;15.57;;;4.20;99.90;;;;;;4396846;32;20226;-72
2021/05/09 04:03:27;;;;;;;30.50;16.50;;;4.30;99.90;;;;;;4395633;32;20187;-72
2021/05/09 04:05:55;;;;;;;28.93;15.07;;;4.40;99.90;;;;;;4380698;32;20184;-72
2021/05/09 04:08:23;;;;;;;28.90;15.60;;;4.50;99.90;;;;;;4395529;32;20211;-72
2021/05/09 04:10:51;;;;;;;26.20;15.73;;;4.60;99.90;;;;;;4395486;32;20528;-73
2021/05/09 04:13:17;;;;;;;27.23;15.37;;;4.70;99.90;;;;;;4395493;32;20151;-74
2021/05/09 04:15:45;;;;;;;31.00;15.93;;;4.70;99.90;;;;;;4395345;32;20188;-74
2021/05/09 04:18:11;;;;;;;31.50;15.33;;;4.80;99.90;;;;;;4381576;32;20179;-74
2021/05/09 04:20:38;;;;;;;29.07;15.83;;;4.90;99.90;;;;;;4395379;32;20170;-74
2021/05/09 04:23:08;;;;;;;32.43;16.73;;;4.90;99.90;;;;;;4395355;32;20236;-74
2021/05/09 04:25:35;;;;;;;26.67;15.30;;;4.90;99.90;;;;;;4396485;32;20217;-74
2021/05/09 04:28:01;;;;;;;28.73;15.73;;;4.90;99.90;;;;;;4394647;32;20185;-74
2021/05/09 04:30:27;;;;;;;29.37;15.17;;;5.00;99.90;;;;;;4396854;32;20190;-74
2021/05/09 04:33:02;;;;;;;31.00;15.87;;;5.00;99.90;;;;;;4395098;32;20193;-76
2021/05/09 04:35:29;;;;;;;29.67;15.67;;;5.10;99.90;;;;;;4396638;32;20147;-74
2021/05/09 04:37:56;;;;;;;27.00;15.27;;;5.20;99.90;;;;;;4395223;32;20180;-74
2021/05/09 04:40:23;;;;;;;29.50;15.47;;;5.20;99.90;;;;;;4400612;32;20165;-74
2021/05/09 04:42:50;;;;;;;26.90;15.30;;;5.30;99.90;;;;;;4411181;32;20162;-74
2021/05/09 04:45:17;;;;;;;26.10;15.07;;;5.50;99.90;;;;;;4409493;32;20230;-74
2021/05/09 04:47:44;;;;;;;30.53;15.97;;;5.50;99.90;;;;;;4411617;32;20159;-74
2021/05/09 04:50:12;;;;;;;27.70;16.60;;;5.60;99.90;;;;;;4410031;32;20463;-74
2021/05/09 04:52:39;;;;;;;29.50;15.50;;;5.70;99.90;;;;;;4410050;32;20501;-74
2021/05/09 04:55:07;;;;;;;27.83;15.63;;;5.80;99.90;;;;;;4396387;32;20203;-74
2021/05/09 04:57:34;;;;;;;28.80;15.20;;;6.00;99.90;;;;;;4408015;32;20161;-74
2021/05/09 05:00:03;;;;;;;26.27;14.53;;;6.10;99.90;;;;;;4409789;32;20432;-74
2021/05/09 05:02:29;;;;;;;26.60;14.70;;;6.20;99.90;;;;;;4409671;32;20166;-74
2021/05/09 05:04:58;;;;;;;24.10;13.63;;;6.30;99.90;;;;;;4405975;32;20167;-73
2021/05/09 05:07:24;;;;;;;21.37;12.50;;;6.50;99.90;;;;;;4409683;32;20193;-73
2021/05/09 05:09:50;;;;;;;22.47;13.00;;;6.50;99.90;;;;;;4409683;32;20151;-73
2021/05/09 05:12:17;;;;;;;23.53;11.90;;;6.60;99.90;;;;;;4410680;32;20433;-73
2021/05/09 05:14:44;;;;;;;21.13;12.13;;;6.70;99.90;;;;;;4395741;32;20414;-75
2021/05/09 05:17:10;;;;;;;22.47;12.03;;;6.80;99.90;;;;;;4409213;32;20163;-73
2021/05/09 05:19:36;;;;;;;20.90;11.03;;;6.90;99.90;;;;;;4409401;32;20155;-74
2021/05/09 05:22:04;;;;;;;19.17;11.17;;;7.00;99.90;;;;;;4409712;32;20216;-73
2021/05/09 05:24:31;;;;;;;19.60;11.17;;;7.10;99.90;;;;;;4409900;32;20543;-74
2021/05/09 05:27:12;;;;;;;19.87;11.03;;;7.20;99.90;;;;;;4409529;32;20139;-74
2021/05/09 05:29:44;;;;;;;19.87;11.00;;;7.40;99.90;;;;;;4409320;32;20434;-74
2021/05/09 05:32:26;;;;;;;17.87;10.30;;;7.50;99.90;;;;;;4411329;32;20259;-74
2021/05/09 05:35:06;;;;;;;17.80;10.07;;;7.50;99.90;;;;;;4409419;32;20173;-74
2021/05/09 05:37:41;;;;;;;17.50;10.00;;;7.70;99.90;;;;;;4409724;32;20190;-74
2021/05/09 05:40:17;;;;;;;19.53;11.13;;;7.80;99.90;;;;;;4409208;32;20217;-74
2021/05/09 05:42:51;;;;;;;17.83;11.03;;;8.00;99.90;;;;;;4395574;32;20267;-74
2021/05/09 05:48:40;;;;;;;19.87;11.33;;;8.40;99.90;;;;;;4354141;33;20544;-74
2021/05/09 05:51:15;;;;;;;17.60;10.80;;;8.60;99.90;;;;;;4363166;32;20172;-73
2021/05/09 05:53:53;;;;;;;17.60;11.03;;;8.70;99.90;;;;;;4361038;32;20417;-75
2021/05/09 05:56:59;;;;;;;20.57;11.00;;;8.80;99.90;;;;;;4362350;32;20159;-73
2021/05/09 05:59:47;;;;;;;18.70;10.17;;;8.90;99.90;;;;;;4360919;32;20167;-74
2021/05/09 06:02:38;;;;;;;18.53;10.70;;;9.00;99.90;;;;;;4361223;32;20194;-74
2021/05/09 06:05:05;;;;;;;19.93;11.00;;;9.20;99.90;;;;;;4361625;33;20178;-74
2021/05/09 06:07:46;;;;;;;17.67;10.77;;;9.20;99.90;;;;;;4362260;32;20160;-73
2021/05/09 06:10:32;;;;;;;20.93;10.70;;;9.30;99.90;;;;;;4361059;32;20493;-73
2021/05/09 06:13:10;;;;;;;17.53;10.60;;;9.40;99.90;;;;;;4361173;33;20191;-73
2021/05/09 06:15:41;;;;;;;15.10;9.50;;;9.50;99.90;;;;;;4355642;33;20163;-74
2021/05/09 06:18:13;;;;;;;17.60;9.33;;;9.60;99.90;;;;;;4361510;33;20160;-73
2021/05/09 06:20:53;;;;;;;14.10;8.60;;;9.70;99.90;;;;;;4361865;33;20194;-74
2021/05/09 06:23:41;;;;;;;15.07;8.37;;;9.80;98.20;;;;;;4362346;33;20432;-74
2021/05/09 06:26:48;;;;;;;13.90;8.47;;;10.00;96.30;;;;;;4400378;32;20166;-73
2021/05/09 06:29:27;;;;;;;15.03;8.60;;;10.10;94.90;;;;;;4412457;32;20186;-70
2021/05/09 06:32:08;;;;;;;15.20;8.27;;;10.30;93.50;;;;;;4413784;32;20151;-71
2021/05/09 06:34:59;;;;;;;13.17;7.90;;;10.40;92.50;;;;;;4412295;32;20206;-70
2021/05/09 06:37:55;;;;;;;11.93;7.30;;;10.50;91.80;;;;;;4405772;32;20230;-71
2021/05/09 06:41:05;;;;;;;10.93;6.47;;;10.70;91.30;;;;;;4407990;32;20163;-70
2021/05/09 06:43:56;;;;;;;11.47;7.17;;;10.90;89.30;;;;;;4359690;32;20190;-71
2021/05/09 06:46:36;;;;;;;11.20;6.70;;;11.00;85.40;;;;;;4362790;33;20194;-71
2021/05/09 06:49:14;;;;;;;11.83;6.87;;;11.10;84.90;;;;;;4366035;32;20156;-71
2021/05/09 06:52:10;;;;;;;10.60;6.63;;;11.20;86.10;;;;;;4362963;32;20164;-71
2021/05/09 06:55:08;;;;;;;10.70;6.70;;;11.30;84.80;;;;;;4357432;33;20175;-71
2021/05/09 06:58:00;;;;;;;10.07;5.80;;;11.50;82.40;;;;;;4363378;32;20180;-71
2021/05/09 07:00:35;;;;;;;9.13;5.90;;;11.70;79.30;;;;;;4363293;32;20532;-71
2021/05/09 07:03:11;;;;;;;10.70;5.90;;;11.80;78.00;;;;;;4360640;33;20168;-71
2021/05/09 07:06:00;;;;;;;10.63;5.70;;;11.80;75.60;;;;;;4363885;32;20202;-71
2021/05/09 07:08:50;;;;;;;11.40;5.17;;;12.00;73.90;;;;;;4366156;32;20311;-70
2021/05/09 07:11:20;;;;;;;9.77;5.03;;;12.00;73.60;;;;;;4361858;32;20477;-73
2021/05/09 07:13:49;;;;;;;9.07;4.97;;;12.10;69.70;;;;;;4363654;32;20479;-73
2021/05/09 07:16:40;;;;;;;8.30;4.67;;;12.10;70.00;;;;;;4362676;33;20495;-73
2021/05/09 07:19:23;;;;;;;10.50;5.20;;;12.30;70.20;;;;;;4371001;32;20160;-73
2021/05/09 07:22:06;;;;;;;8.23;4.83;;;12.40;70.00;;;;;;4396402;32;20194;-71
2021/05/09 07:24:36;;;;;;;8.23;4.57;;;12.50;68.80;;;;;;4396126;32;20181;-73
2021/05/09 07:27:21;;;;;;;9.73;4.83;;;12.60;68.60;;;;;;4409030;32;20189;-73
2021/05/09 07:29:58;;;;;;;7.30;4.53;;;12.80;69.40;;;;;;4408294;32;20193;-72
2021/05/09 07:32:24;;;;;;;9.57;4.57;;;12.90;66.60;;;;;;4413133;32;20498;-72
2021/05/09 07:35:01;;;;;;;7.90;4.47;;;12.90;63.60;;;;;;4411507;32;20172;-71
2021/05/09 07:37:34;;;;;;;8.00;4.27;;;13.00;63.80;;;;;;4411933;32;20171;-72
2021/05/09 07:40:08;;;;;;;7.73;4.20;;;13.20;65.20;;;;;;4410212;32;20226;-71
2021/05/09 07:42:51;;;;;;;6.93;4.57;;;13.30;64.00;;;;;;4410434;32;20164;-72
2021/05/09 07:45:22;;;;;;;10.80;4.93;;;13.40;62.30;;;;;;4411479;32;20247;-71
2021/05/09 07:47:52;;;;;;;8.17;4.47;;;13.50;60.60;;;;;;4410949;32;20163;-73
2021/05/09 07:50:20;;;;;;;8.83;4.77;;;13.50;60.20;;;;;;4411890;32;20453;-71
2021/05/09 07:52:47;;;;;;;9.17;4.90;;;13.60;60.20;;;;;;4411375;32;20193;-72
2021/05/09 07:55:15;;;;;;;12.57;5.10;;;13.70;59.40;;;;;;4410865;32;20163;-72
2021/05/09 07:57:43;;;;;;;8.80;4.77;;;13.70;59.10;;;;;;4412090;32;20155;-72
2021/05/09 08:00:15;;;;;;;9.97;4.97;;;13.70;57.70;;;;;;4411582;32;20165;-72
2021/05/09 08:02:44;;;;;;;8.33;4.83;;;13.70;58.80;;;;;;4411121;32;20163;-72
2021/05/09 08:05:22;;;;;;;10.13;4.93;;;13.90;59.00;;;;;;4409460;32;20175;-73
2021/05/09 08:07:56;;;;;;;8.33;4.43;;;14.10;57.90;;;;;;4410796;32;20159;-72
2021/05/09 08:10:27;;;;;;;9.13;5.00;;;14.20;57.40;;;;;;4411422;32;20167;-71
2021/05/09 08:13:14;;;;;;;12.63;5.20;;;15.00;55.80;;;;;;4394430;32;20178;-73
2021/05/09 08:15:44;;;;;;;9.03;4.80;;;15.80;52.80;;;;;;4395642;32;20167;-72
2021/05/09 08:18:22;;;;;;;7.00;4.40;;;16.40;53.00;;;;;;4395788;32;20171;-73
2021/05/09 08:20:55;;;;;;;8.37;4.90;;;17.00;51.80;;;;;;4395914;32;20370;-72
2021/05/09 08:23:25;;;;;;;11.23;4.80;;;17.60;51.70;;;;;;4396749;32;20181;-72
2021/05/09 08:25:57;;;;;;;7.97;4.67;;;17.90;49.90;;;;;;4396243;32;20241;-72
2021/05/09 08:28:29;;;;;;;7.33;4.63;;;18.00;48.40;;;;;;4403883;32;20421;-71
2021/05/09 08:31:24;;;;;;;7.77;4.23;;;18.00;49.30;;;;;;4409988;32;20497;-72
2021/05/09 08:33:50;;;;;;;7.80;4.93;;;18.50;49.50;;;;;;4334517;33;20160;-72
2021/05/09 08:36:35;;;;;;;7.83;4.60;;;19.00;48.50;;;;;;4333902;33;20203;-73
2021/05/09 08:39:18;;;;;;;9.57;4.50;;;19.20;45.30;;;;;;4333940;33;20157;-72
2021/05/09 08:41:51;;;;;;;6.70;4.20;;;18.80;45.80;;;;;;4332763;33;20161;-71
2021/05/09 08:44:22;;;;;;;6.80;4.43;;;18.70;45.90;;;;;;4333320;33;20208;-71
2021/05/09 08:46:52;;;;;;;7.57;4.20;;;18.70;46.60;;;;;;4333256;33;20181;-73
2021/05/09 08:49:43;;;;;;;7.43;4.60;;;18.60;48.90;;;;;;4335031;33;20196;-73
2021/05/09 08:52:56;;;;;;;9.10;3.90;;;19.10;47.50;;;;;;4332166;33;20177;-71
2021/05/09 08:55:37;;;;;;;8.43;4.13;;;19.40;46.90;;;;;;4274558;33;20387;-73
2021/05/09 08:58:09;;;;;;;7.17;3.90;;;19.10;46.10;;;;;;4275692;33;20592;-75
2021/05/09 09:00:38;;;;;;;8.87;4.13;;;19.00;46.30;;;;;;4272939;33;20190;-73
2021/05/09 09:03:05;;;;;;;6.87;3.80;;;19.20;46.90;;;;;;4272817;33;20222;-73
2021/05/09 09:05:48;;;;;;;7.50;4.00;;;19.30;46.10;;;;;;4274132;33;20219;-73
2021/05/09 09:08:21;;;;;;;5.90;3.73;;;19.40;46.20;;;;;;4275997;33;20214;-74
2021/05/09 09:10:56;;;;;;;5.40;3.57;;;19.50;46.50;;;;;;4305540;33;20165;-72
2021/05/09 09:13:33;;;;;;;6.03;3.97;;;19.70;45.00;;;;;;4332422;33;20192;-73
2021/05/09 09:16:06;;;;;;;7.60;3.87;;;18.80;43.70;;;;;;4318196;33;20195;-72
2021/05/09 09:18:43;;;;;;;6.43;3.50;;;19.20;44.70;;;;;;4326437;33;20191;-74
2021/05/09 09:21:31;;;;;;;7.23;3.50;;;19.60;44.90;;;;;;4334539;33;20253;-73
2021/05/09 09:24:18;;;;;;;5.53;3.43;;;19.40;44.20;;;;;;4332666;33;20550;-73
2021/05/09 09:26:49;;;;;;;7.70;3.70;;;19.40;44.50;;;;;;4333050;33;20157;-73
2021/05/09 09:29:22;;;;;;;6.57;3.20;;;19.80;45.10;;;;;;4331063;33;20200;-74
2021/05/09 09:31:56;;;;;;;5.10;3.43;;;19.60;43.60;;;;;;4361583;32;20159;-73
2021/05/09 09:34:39;;;;;;;5.03;3.00;;;19.70;44.40;;;;;;4409780;32;20142;-73
2021/05/09 09:37:07;;;;;;;6.57;3.20;;;19.90;43.80;;;;;;4410365;32;20228;-73
2021/05/09 09:40:03;;;;;;;5.73;3.27;;;20.10;43.70;;;;;;4408276;32;20194;-73
2021/05/09 09:42:40;;;;;;;5.90;3.23;;;20.60;43.50;;;;;;4357052;33;20192;-73
2021/05/09 09:45:16;;;;;;;4.40;3.07;;;20.70;41.50;;;;;;4363015;32;20226;-73
2021/05/09 09:47:53;;;;;;;5.87;3.10;;;20.50;41.30;;;;;;4361417;32;20217;-74
2021/05/09 09:50:36;;;;;;;4.97;2.60;;;20.70;42.50;;;;;;4363535;32;20210;-73
2021/05/09 09:53:42;;;;;;;4.97;2.90;;;21.30;42.10;;;;;;4361894;32;20187;-73
2021/05/09 09:56:10;;;;;;;5.40;2.80;;;21.40;40.60;;;;;;4360282;32;20164;-74
2021/05/09 09:58:49;;;;;;;5.47;2.90;;;20.90;41.70;;;;;;4361834;32;20167;-72
2021/05/09 10:01:27;;;;;;;5.77;3.20;;;21.30;41.40;;;;;;4360990;32;20167;-74
2021/05/09 10:03:59;;;;;;;5.13;3.00;;;21.00;42.50;;;;;;4361452;32;20212;-70
2021/05/09 10:06:28;;;;;;;4.07;2.97;;;21.00;42.10;;;;;;4361178;32;20575;-70
2021/05/09 10:08:58;;;;;;;5.90;3.10;;;20.80;42.30;;;;;;4361733;33;20219;-71
2021/05/09 10:11:29;;;;;;;4.47;2.73;;;20.90;43.30;;;;;;4348759;33;20156;-74
2021/05/09 10:13:57;;;;;;;3.50;2.50;;;21.60;43.50;;;;;;4346964;33;20207;-72
2021/05/09 10:16:29;;;;;;;5.37;3.00;;;22.30;41.40;;;;;;4346751;33;20149;-72
2021/05/09 10:19:01;;;;;;;5.00;3.00;;;22.70;41.60;;;;;;4371075;32;20517;-71
2021/05/09 10:21:34;;;;;;;4.78;2.90;;;23.10;41.30;;;;;;4408344;32;20203;-72
2021/05/09 10:24:15;;;;;;;4.57;3.17;;;23.20;39.60;;;;;;4409133;32;20143;-72
2021/05/09 10:26:46;;;;;;;3.87;2.77;;;23.00;39.30;;;;;;4400484;32;20217;-71
2021/05/09 10:29:41;;;;;;;4.50;2.83;;;22.70;40.60;;;;;;4407627;32;20465;-73
2021/05/09 10:32:28;;;;;;;4.37;2.70;;;22.80;39.60;;;;;;4409394;32;20177;-73
2021/05/09 10:34:59;;;;;;;4.80;3.10;;;23.20;40.60;;;;;;4395442;32;20168;-75
2021/05/09 10:37:42;;;;;;;4.37;2.90;;;23.90;39.10;;;;;;4409255;32;20412;-76
2021/05/09 10:40:36;;;;;;;5.53;2.85;;;24.30;38.40;;;;;;4408050;32;20216;-72
2021/05/09 10:43:08;;;;;;;4.60;3.03;;;24.40;36.10;;;;;;4410387;32;20159;-72
2021/05/09 10:45:40;;;;;;;5.23;3.40;;;24.20;36.30;;;;;;4410450;32;20197;-73
2021/05/09 10:48:13;;;;;;;3.45;2.70;;;24.30;36.10;;;;;;4408844;32;20177;-73
2021/05/09 10:50:41;;;;;;;5.75;3.20;;;24.80;36.20;;;;;;4408872;32;20186;-72
2021/05/09 10:53:08;;;;;;;3.42;2.72;;;24.20;36.20;;;;;;4410358;32;20158;-73
2021/05/09 10:55:47;;;;;;;4.57;3.00;;;24.30;37.50;;;;;;4405926;32;20466;-72
2021/05/09 10:58:16;;;;;;;5.40;2.90;;;24.90;35.10;;;;;;4406378;32;21349;-73
2021/05/09 11:00:57;;;;;;;4.43;2.90;;;25.10;36.20;;;;;;4408166;32;20215;-72
2021/05/09 11:03:36;;;;;;;4.45;3.00;;;25.80;34.50;;;;;;4394048;32;20195;-71
2021/05/09 11:06:08;;;;;;;5.15;2.97;;;26.00;33.90;;;;;;4404687;32;20155;-72
2021/05/09 11:08:57;;;;;;;4.28;2.62;;;25.20;33.70;;;;;;4409813;32;20531;-72
2021/05/09 11:11:29;;;;;;;5.07;3.10;;;25.40;34.60;;;;;;4408405;32;20220;-72
2021/05/09 11:16:27;;;;;;;4.03;2.67;;;24.40;35.40;;;;;;4412866;32;20446;-74
2021/05/09 11:19:00;;;;;;;3.97;2.75;;;24.70;35.90;;;;;;4411274;32;20158;-73
2021/05/09 11:21:32;;;;;;;4.18;2.60;;;24.80;35.00;;;;;;4412799;32;20472;-73
2021/05/09 11:24:18;;;;;;;4.78;3.00;;;25.10;35.00;;;;;;4411907;32;20181;-72
2021/05/09 11:26:50;;;;;;;4.30;2.72;;;25.20;34.70;;;;;;4411247;32;20484;-75
2021/05/09 11:29:25;;;;;;;3.80;2.87;;;25.40;34.10;;;;;;4409964;32;20540;-72
2021/05/09 11:31:52;;;;;;;4.07;2.83;;;24.90;33.70;;;;;;4411037;32;20155;-73
2021/05/09 11:34:29;;;;;;;3.35;2.70;;;25.00;34.40;;;;;;4397965;32;20167;-74
2021/05/09 11:37:01;;;;;;;3.60;2.62;;;25.10;34.10;;;;;;4412782;32;20166;-73
2021/05/09 11:39:38;;;;;;;3.47;2.37;;;25.50;34.30;;;;;;4411566;32;20197;-73
2021/05/09 11:42:15;;;;;;;3.78;2.50;;;25.20;34.30;;;;;;4410325;32;20143;-73
2021/05/09 11:44:47;;;;;;;5.07;2.60;;;25.30;33.40;;;;;;4412081;32;20197;-72
2021/05/09 11:47:38;;;;;;;5.20;2.53;;;24.50;34.70;;;;;;4408299;32;20484;-72
2021/05/09 11:50:08;;;;;;;2.85;2.20;;;25.40;34.80;;;;;;4410396;32;20174;-73
2021/05/09 11:52:47;;;;;;;4.32;2.50;;;26.00;33.40;;;;;;4410862;32;20209;-73
2021/05/09 11:55:29;;;;;;;3.40;2.28;;;26.40;32.00;;;;;;4408079;32;20235;-72
2021/05/09 11:58:01;;;;;;;3.37;2.37;;;25.90;31.80;;;;;;4408163;32;20205;-79
2021/05/09 12:00:40;;;;;;;4.22;2.55;;;25.50;32.80;;;;;;4406226;32;20163;-79
2021/05/09 12:03:21;;;;;;;4.00;2.50;;;26.20;33.10;;;;;;4395427;32;20249;-78
2021/05/09 12:06:00;;;;;;;3.20;2.17;;;26.20;31.10;;;;;;4392977;32;20189;-77
2021/05/09 12:08:31;;;;;;;4.15;2.42;;;26.10;32.30;;;;;;4394727;32;20159;-80
2021/05/09 12:10:58;;;;;;;3.35;2.40;;;26.00;31.90;;;;;;4396609;32;20202;-79
2021/05/09 12:13:24;;;;;;;4.28;2.30;;;26.50;32.00;;;;;;4395641;32;20128;-77
2021/05/09 12:15:51;;;;;;;2.58;2.25;;;26.70;31.90;;;;;;4395491;32;20159;-77
2021/05/09 12:18:27;;;;;;;2.83;2.10;;;27.00;32.30;;;;;;4395537;32;20355;-79
2021/05/09 12:21:06;;;;;;;2.83;2.10;;;27.00;31.50;;;;;;4395696;32;20143;-78
2021/05/09 12:23:32;;;;;;;3.05;2.30;;;26.60;31.20;;;;;;4397368;32;20457;-78
2021/05/09 12:26:09;;;;;;;3.42;2.03;;;26.30;30.60;;;;;;4395241;32;20140;-77
2021/05/09 12:28:35;;;;;;;6.60;2.08;;;25.60;31.90;;;;;;4397404;32;20131;-79
2021/05/09 12:31:09;;;;;;;3.00;2.05;;;26.40;33.70;;;;;;4395297;32;20182;-78
2021/05/09 12:33:36;;;;;;;3.50;2.00;;;27.50;31.50;;;;;;4396846;32;20200;-77
2021/05/09 12:36:14;;;;;;;4.22;2.20;;;27.50;29.90;;;;;;4395289;32;20148;-78
2021/05/09 12:38:40;;;;;;;2.95;2.15;;;27.70;29.70;;;;;;4402951;32;20185;-77
2021/05/09 12:41:10;;;;;;;2.62;2.10;;;27.40;29.90;;;;;;4407233;32;20217;-79
2021/05/09 12:43:45;;;;;;;3.75;2.10;;;26.80;30.10;;;;;;4406388;32;20193;-79
2021/05/09 12:47:00;;;;;;;2.10;1.90;;;26.40;31.30;;;;;;4406737;32;20186;-78
2021/05/09 12:49:32;;;;;;;3.25;2.15;;;26.90;30.70;;;;;;4347990;32;20157;-78
2021/05/09 12:52:02;;;;;;;2.90;1.98;;;27.00;29.80;;;;;;4348538;32;20164;-77
2021/05/09 12:54:45;;;;;;;2.60;2.00;;;27.30;31.20;;;;;;4347795;33;20243;-79
2021/05/09 12:57:26;;;;;;;5.10;2.00;;;28.30;30.60;;;;;;4348627;32;20156;-79
2021/05/09 12:59:57;;;;;;;2.40;2.00;;;28.70;29.10;;;;;;4347040;32;20523;-79
2021/05/09 13:02:26;;;;;;;2.92;2.10;;;28.60;28.80;;;;;;4346625;33;20183;-80
2021/05/09 13:04:58;;;;;;;3.05;2.30;;;27.80;29.60;;;;;;4346069;33;20148;-78
2021/05/09 13:07:26;;;;;;;3.42;2.03;;;28.40;30.20;;;;;;4347746;33;20144;-86
2021/05/09 13:09:52;;;;;;;4.65;2.00;;;29.30;29.30;;;;;;4347808;33;20195;-79
2021/05/09 13:12:20;;;;;;;3.17;1.70;;;29.90;27.90;;;;;;4346669;33;20180;-79
2021/05/09 13:14:52;;;;;;;2.78;1.87;;;29.70;28.40;;;;;;4349342;33;20285;-79
2021/05/09 13:17:22;;;;;;;3.08;1.90;;;29.60;27.60;;;;;;4349327;33;20542;-80